Time;durP1;ratioP1;P1;durP2;ratioP2;P2;SDS_P1;SDS_P2;PMS_P1;PMS_P2;Temp;Humidity;BMP_temperature;BMP_pressure;BME280_temperature;BME280_humidity;BME280_pressure;Samples;Min_cycle;Max_cycle;Signal;HPM_P1;HPM_P2
2022/03/03 05:01:07;;;;;;;25.07;16.03;;;-0.10;99.90;;;;;;5650214;23;20507;-75
2022/03/03 05:03:34;;;;;;;22.97;16.40;;;-0.10;99.90;;;;;;4974296;28;20465;-75
2022/03/03 05:06:01;;;;;;;28.60;16.63;;;-0.10;99.90;;;;;;4974332;28;20460;-75
2022/03/03 05:08:28;;;;;;;28.30;16.47;;;-0.10;99.90;;;;;;4974163;28;20491;-75
2022/03/03 05:10:54;;;;;;;24.30;15.50;;;-0.20;99.90;;;;;;4968062;28;20491;-75
2022/03/03 05:13:21;;;;;;;25.83;16.80;;;-0.20;99.90;;;;;;4954654;28;20504;-75
2022/03/03 05:15:48;;;;;;;31.60;17.00;;;-0.20;99.90;;;;;;4990322;23;20976;-75
2022/03/03 05:18:16;;;;;;;24.70;15.57;;;-0.20;99.90;;;;;;4974124;28;20886;-75
2022/03/03 05:20:43;;;;;;;28.90;17.73;;;-0.20;99.90;;;;;;4973875;28;20463;-76
2022/03/03 05:23:10;;;;;;;34.13;17.20;;;-0.20;99.90;;;;;;4974355;28;20528;-75
2022/03/03 05:25:37;;;;;;;26.70;15.30;;;-0.20;99.90;;;;;;4974057;28;20563;-75
2022/03/03 05:28:04;;;;;;;25.33;16.27;;;-0.20;99.90;;;;;;4973365;28;20456;-75
2022/03/03 05:30:31;;;;;;;23.63;15.47;;;-0.30;99.90;;;;;;4973700;28;20456;-75
2022/03/03 05:32:58;;;;;;;25.37;16.60;;;-0.20;99.90;;;;;;4973782;28;20499;-75
2022/03/03 05:35:27;;;;;;;26.00;16.80;;;-0.30;99.90;;;;;;4973802;28;20479;-75
2022/03/03 05:37:53;;;;;;;29.30;16.10;;;-0.30;99.90;;;;;;4973947;28;20461;-76
2022/03/03 05:40:20;;;;;;;24.63;15.53;;;-0.30;99.90;;;;;;4973414;28;20637;-76
2022/03/03 05:42:47;;;;;;;29.00;16.43;;;-0.30;99.90;;;;;;4973763;28;20979;-76
2022/03/03 05:45:15;;;;;;;26.30;17.03;;;-0.30;99.90;;;;;;4973619;28;20559;-76
2022/03/03 05:47:42;;;;;;;25.33;17.90;;;-0.30;99.90;;;;;;4973738;28;20456;-76
2022/03/03 05:50:10;;;;;;;28.63;17.17;;;-0.30;99.90;;;;;;4973325;28;20445;-76
2022/03/03 05:52:38;;;;;;;27.20;17.27;;;-0.40;99.90;;;;;;4972949;28;20885;-76
2022/03/03 05:55:06;;;;;;;33.97;16.60;;;-0.40;99.90;;;;;;4973552;28;20486;-76
2022/03/03 05:57:36;;;;;;;37.20;16.20;;;-0.40;99.90;;;;;;4973539;28;20494;-76
2022/03/03 06:00:07;;;;;;;29.80;16.63;;;-0.50;99.90;;;;;;4973293;28;20913;-75
2022/03/03 06:02:34;;;;;;;35.87;18.30;;;-0.50;99.90;;;;;;4973195;28;20952;-75
2022/03/03 06:05:04;;;;;;;31.17;18.77;;;-0.50;99.90;;;;;;4973287;28;20468;-76
2022/03/03 06:07:35;;;;;;;31.87;17.57;;;-0.50;99.90;;;;;;4972874;28;20952;-76
2022/03/03 06:10:04;;;;;;;26.70;15.47;;;-0.50;99.90;;;;;;4973372;28;20511;-76
2022/03/03 06:12:40;;;;;;;34.37;17.47;;;-0.60;99.90;;;;;;4973239;28;20817;-76
2022/03/03 06:15:07;;;;;;;30.07;17.10;;;-0.50;99.90;;;;;;4972928;28;20499;-76
2022/03/03 06:17:35;;;;;;;28.73;16.53;;;-0.50;99.90;;;;;;4973050;28;20449;-76
2022/03/03 06:20:02;;;;;;;30.07;17.73;;;-0.50;99.90;;;;;;4972615;28;20960;-74
2022/03/03 06:22:29;;;;;;;31.73;16.13;;;-0.50;99.90;;;;;;4972919;28;20928;-74
2022/03/03 06:24:56;;;;;;;27.93;16.40;;;-0.50;99.90;;;;;;4973096;28;20482;-72
2022/03/03 06:27:24;;;;;;;39.90;20.73;;;-0.50;99.90;;;;;;4973121;28;20467;-74
2022/03/03 06:29:51;;;;;;;38.23;21.80;;;-0.50;99.90;;;;;;4972695;28;20949;-73
2022/03/03 06:32:18;;;;;;;34.17;19.23;;;-0.60;99.90;;;;;;4972935;28;20630;-74
2022/03/03 06:34:45;;;;;;;29.27;16.87;;;-0.60;99.90;;;;;;4972524;28;20507;-73
2022/03/03 06:37:12;;;;;;;29.77;17.90;;;-0.70;99.90;;;;;;4972756;28;20906;-76
2022/03/03 06:39:39;;;;;;;35.73;18.10;;;-0.70;99.90;;;;;;4974272;28;20467;-76
2022/03/03 06:42:07;;;;;;;36.23;17.80;;;-0.60;99.90;;;;;;4977210;28;20463;-74
2022/03/03 06:44:35;;;;;;;27.93;17.30;;;-0.60;99.90;;;;;;4976659;28;20460;-74
2022/03/03 06:47:03;;;;;;;30.93;17.00;;;-0.60;99.90;;;;;;4976703;28;20543;-76
2022/03/03 06:49:30;;;;;;;36.60;18.03;;;-0.60;99.90;;;;;;4976504;28;20933;-74
2022/03/03 06:51:58;;;;;;;32.77;17.50;;;-0.60;99.90;;;;;;4976959;28;20484;-75
2022/03/03 06:54:25;;;;;;;30.30;18.07;;;-0.60;99.90;;;;;;4976395;28;20503;-75
2022/03/03 06:56:54;;;;;;;30.53;18.30;;;-0.60;99.90;;;;;;4976869;28;20467;-75
2022/03/03 06:59:27;;;;;;;33.20;17.20;;;-0.50;99.90;;;;;;4976420;28;21031;-75
2022/03/03 07:01:56;;;;;;;31.90;17.03;;;-0.60;99.90;;;;;;4976408;28;20530;-74
2022/03/03 07:04:24;;;;;;;32.93;18.00;;;-0.50;99.90;;;;;;4976648;28;20581;-75
2022/03/03 07:06:51;;;;;;;32.47;18.00;;;-0.50;99.90;;;;;;4976570;28;20453;-75
2022/03/03 07:09:19;;;;;;;29.50;18.30;;;-0.50;99.90;;;;;;4976434;28;20829;-75
2022/03/03 07:11:47;;;;;;;34.70;18.50;;;-0.50;99.90;;;;;;4976342;28;20452;-75
2022/03/03 07:14:14;;;;;;;33.33;19.23;;;-0.50;99.90;;;;;;4976033;28;20582;-75
2022/03/03 07:16:44;;;;;;;33.30;18.20;;;-0.40;99.90;;;;;;4976116;28;20484;-75
2022/03/03 07:19:34;;;;;;;31.70;16.47;;;-0.40;99.90;;;;;;4976269;28;20876;-75
2022/03/03 07:22:10;;;;;;;41.63;20.80;;;-0.30;99.90;;;;;;4976047;28;20522;-75
2022/03/03 07:24:45;;;;;;;57.93;26.10;;;-0.30;99.90;;;;;;4975764;28;20455;-75
2022/03/03 07:27:19;;;;;;;39.23;19.43;;;-0.30;99.90;;;;;;4976080;28;20816;-75
2022/03/03 07:29:49;;;;;;;35.33;19.13;;;-0.30;99.90;;;;;;4975950;28;20460;-75
2022/03/03 07:32:19;;;;;;;34.13;17.57;;;-0.30;99.90;;;;;;4975946;28;21036;-75
2022/03/03 07:34:56;;;;;;;31.90;17.60;;;-0.20;99.90;;;;;;4975899;28;20594;-76
2022/03/03 07:37:30;;;;;;;30.33;17.23;;;-0.20;99.90;;;;;;4976097;28;20499;-75
2022/03/03 07:40:02;;;;;;;27.30;16.10;;;-0.10;99.90;;;;;;4975619;28;21016;-76
2022/03/03 07:42:29;;;;;;;29.43;16.80;;;0.00;99.90;;;;;;4975742;28;20488;-75
2022/03/03 07:44:56;;;;;;;27.53;17.60;;;0.10;99.90;;;;;;4975619;28;20476;-75
2022/03/03 07:47:23;;;;;;;30.50;18.30;;;0.20;99.90;;;;;;4975622;28;20904;-74
2022/03/03 07:49:52;;;;;;;31.10;17.90;;;0.20;99.90;;;;;;4974788;28;20461;-75
2022/03/03 07:52:21;;;;;;;32.67;17.27;;;0.20;99.90;;;;;;4975673;28;20460;-75
2022/03/03 07:54:48;;;;;;;30.60;18.33;;;0.30;99.90;;;;;;4975399;28;20591;-75
2022/03/03 07:57:17;;;;;;;28.60;17.03;;;0.40;99.90;;;;;;4975462;28;20953;-75
2022/03/03 07:59:48;;;;;;;33.00;17.00;;;0.40;99.90;;;;;;4975116;28;20544;-75
2022/03/03 08:02:21;;;;;;;24.53;17.43;;;0.50;99.90;;;;;;4975284;28;20455;-75
2022/03/03 08:04:51;;;;;;;32.07;18.33;;;0.60;99.90;;;;;;4975420;28;20468;-76
2022/03/03 08:07:19;;;;;;;31.80;17.97;;;0.80;99.90;;;;;;4975243;28;20452;-75
2022/03/03 08:09:51;;;;;;;33.30;16.50;;;0.90;99.90;;;;;;4975064;28;20480;-74
2022/03/03 08:12:18;;;;;;;31.80;18.30;;;0.90;99.90;;;;;;4975241;28;20495;-75
2022/03/03 08:14:46;;;;;;;26.10;16.00;;;1.10;99.90;;;;;;4974750;28;20496;-75
2022/03/03 08:17:15;;;;;;;29.63;17.33;;;1.10;99.90;;;;;;4975350;28;20456;-75
2022/03/03 08:19:44;;;;;;;25.20;15.30;;;1.30;99.90;;;;;;4975018;28;20460;-75
2022/03/03 08:22:13;;;;;;;27.77;15.40;;;1.30;99.90;;;;;;4975129;28;20456;-75
2022/03/03 08:24:43;;;;;;;23.33;14.07;;;1.50;99.90;;;;;;4974878;28;20539;-75
2022/03/03 08:27:11;;;;;;;28.20;14.93;;;1.60;99.90;;;;;;4974796;28;20465;-75
2022/03/03 08:29:38;;;;;;;24.60;16.10;;;1.80;99.90;;;;;;4974600;28;20457;-75
2022/03/03 08:32:11;;;;;;;23.90;16.10;;;1.90;99.90;;;;;;4975016;28;20515;-75
2022/03/03 08:34:42;;;;;;;28.87;15.40;;;2.00;99.90;;;;;;4974666;28;20500;-76
2022/03/03 08:37:15;;;;;;;21.43;15.10;;;2.20;99.90;;;;;;4974865;28;20978;-75
2022/03/03 08:39:43;;;;;;;29.73;17.67;;;2.30;99.90;;;;;;4974356;28;20479;-75
2022/03/03 08:42:13;;;;;;;28.53;17.07;;;2.40;99.90;;;;;;4974887;28;20471;-75
2022/03/03 08:44:44;;;;;;;27.90;17.87;;;2.70;99.90;;;;;;4974624;28;20515;-76
2022/03/03 08:47:15;;;;;;;30.73;16.77;;;3.10;99.90;;;;;;4974627;28;20462;-75
2022/03/03 08:49:45;;;;;;;34.70;18.20;;;3.30;99.90;;;;;;4974454;28;20949;-75
2022/03/03 08:52:13;;;;;;;27.07;17.33;;;3.70;99.90;;;;;;4974313;28;20865;-75
2022/03/03 08:54:40;;;;;;;28.13;17.17;;;4.00;99.90;;;;;;4974375;28;20528;-75
2022/03/03 08:57:09;;;;;;;29.73;16.80;;;4.20;99.90;;;;;;4974738;28;20484;-75
2022/03/03 08:59:36;;;;;;;30.57;17.17;;;4.40;99.90;;;;;;4974327;28;20463;-75
2022/03/03 09:02:04;;;;;;;27.73;17.60;;;4.70;99.90;;;;;;4973566;28;20514;-75
2022/03/03 09:04:31;;;;;;;22.77;16.00;;;4.80;99.90;;;;;;4974021;28;20884;-76
2022/03/03 09:06:58;;;;;;;24.67;17.10;;;5.00;99.90;;;;;;4974171;28;20460;-75
2022/03/03 09:09:26;;;;;;;22.10;14.80;;;5.10;99.90;;;;;;4974388;28;20445;-75
2022/03/03 09:11:53;;;;;;;25.83;15.70;;;5.20;99.90;;;;;;4974110;28;20460;-75
2022/03/03 09:14:19;;;;;;;26.13;17.07;;;5.30;99.90;;;;;;4974135;28;20497;-75
2022/03/03 09:16:47;;;;;;;22.47;15.87;;;5.20;99.90;;;;;;4974002;28;20551;-75
2022/03/03 09:19:13;;;;;;;23.87;15.80;;;5.30;99.90;;;;;;4973580;28;20472;-77
2022/03/03 09:21:41;;;;;;;23.10;14.50;;;5.30;99.90;;;;;;4974155;28;20536;-75
2022/03/03 09:24:09;;;;;;;24.30;16.30;;;5.40;99.90;;;;;;4974093;28;20448;-76
2022/03/03 09:26:37;;;;;;;25.70;16.00;;;5.70;99.90;;;;;;4973803;28;20472;-76
2022/03/03 09:29:04;;;;;;;23.17;15.70;;;6.00;99.90;;;;;;4973906;28;20555;-76
2022/03/03 09:31:31;;;;;;;25.03;15.67;;;6.00;99.90;;;;;;4973760;28;20864;-75
2022/03/03 09:33:58;;;;;;;26.70;16.67;;;6.20;99.90;;;;;;4973543;28;20540;-75
2022/03/03 09:36:25;;;;;;;22.63;14.83;;;6.20;99.90;;;;;;4973884;28;20476;-76
2022/03/03 09:38:52;;;;;;;22.30;16.27;;;6.30;99.90;;;;;;4973918;28;20963;-76
2022/03/03 09:41:19;;;;;;;21.87;14.90;;;6.60;99.90;;;;;;4973596;28;20953;-76
2022/03/03 09:43:47;;;;;;;27.87;16.17;;;6.70;99.90;;;;;;4973447;28;20972;-75
2022/03/03 09:46:14;;;;;;;24.40;15.87;;;6.80;99.90;;;;;;4973419;28;20483;-76
2022/03/03 09:48:41;;;;;;;21.03;12.90;;;6.90;99.90;;;;;;4973556;28;20457;-75
2022/03/03 09:51:08;;;;;;;24.00;15.30;;;6.90;99.90;;;;;;4973668;28;20453;-75
2022/03/03 09:53:34;;;;;;;19.80;14.17;;;7.00;99.90;;;;;;4973707;28;20976;-76
2022/03/03 09:56:01;;;;;;;24.20;14.10;;;7.20;99.90;;;;;;4973149;28;21089;-76
2022/03/03 09:58:28;;;;;;;18.40;13.70;;;7.40;99.90;;;;;;4973379;28;20452;-76
2022/03/03 10:00:57;;;;;;;22.57;14.77;;;7.60;99.90;;;;;;4973016;28;20531;-75
2022/03/03 10:03:31;;;;;;;22.83;14.77;;;7.90;99.90;;;;;;4973433;28;20453;-76
2022/03/03 10:06:00;;;;;;;23.93;14.93;;;8.10;99.90;;;;;;4973312;28;20524;-75
2022/03/03 10:08:28;;;;;;;22.37;14.40;;;8.10;99.90;;;;;;4973329;28;20464;-75
2022/03/03 10:10:57;;;;;;;23.30;15.43;;;8.10;99.90;;;;;;4973150;28;20456;-75
2022/03/03 10:13:25;;;;;;;23.20;14.80;;;8.10;99.90;;;;;;4972888;28;20967;-75
2022/03/03 10:15:54;;;;;;;20.93;15.50;;;8.20;99.90;;;;;;4973054;28;20500;-76
2022/03/03 10:18:24;;;;;;;27.83;15.70;;;8.30;99.90;;;;;;4972962;28;20463;-76
2022/03/03 10:20:53;;;;;;;24.60;16.27;;;8.40;99.90;;;;;;4973378;28;20453;-75
2022/03/03 10:23:27;;;;;;;23.97;15.97;;;8.40;99.90;;;;;;4973214;28;20555;-76
2022/03/03 10:25:54;;;;;;;20.60;14.07;;;8.50;99.90;;;;;;4972724;28;20468;-76
2022/03/03 10:28:23;;;;;;;25.97;16.10;;;8.60;99.90;;;;;;4973163;28;20461;-76
2022/03/03 10:30:57;;;;;;;26.00;16.37;;;9.20;99.90;;;;;;4972924;28;20543;-76
2022/03/03 10:33:28;;;;;;;24.43;15.90;;;9.50;99.90;;;;;;4973059;28;20452;-76
2022/03/03 10:36:13;;;;;;;27.17;16.20;;;9.50;99.90;;;;;;4972746;28;20987;-75
2022/03/03 10:39:02;;;;;;;24.67;16.70;;;9.50;99.90;;;;;;4972825;28;20899;-75
2022/03/03 10:41:31;;;;;;;22.67;14.37;;;9.50;99.90;;;;;;4968590;28;20551;-76
2022/03/03 10:43:58;;;;;;;23.30;15.43;;;9.90;99.90;;;;;;4972999;28;20545;-75
2022/03/03 10:46:25;;;;;;;23.10;15.80;;;10.10;99.90;;;;;;4972767;28;20841;-76
2022/03/03 10:48:53;;;;;;;25.50;16.17;;;10.20;99.90;;;;;;4972389;28;20460;-76
2022/03/03 10:51:24;;;;;;;22.53;15.93;;;10.40;99.90;;;;;;4973023;28;20453;-76
2022/03/03 10:53:51;;;;;;;24.93;16.20;;;10.70;99.90;;;;;;4973006;28;20452;-76
2022/03/03 10:56:19;;;;;;;22.90;15.87;;;10.60;99.90;;;;;;4972517;28;20502;-75
2022/03/03 10:58:48;;;;;;;25.27;16.33;;;10.50;99.90;;;;;;4972754;28;21188;-75
2022/03/03 11:01:18;;;;;;;21.87;16.20;;;10.60;99.90;;;;;;4972550;28;20532;-76
2022/03/03 11:03:49;;;;;;;23.03;15.30;;;10.50;99.90;;;;;;4973001;28;20547;-76
2022/03/03 11:06:19;;;;;;;22.47;15.17;;;10.50;99.90;;;;;;4972680;28;20480;-76
2022/03/03 11:08:47;;;;;;;24.17;15.07;;;10.50;99.90;;;;;;4972660;28;20699;-75
2022/03/03 11:11:41;;;;;;;23.60;16.90;;;10.50;99.90;;;;;;4972644;28;20908;-75
2022/03/03 11:14:09;;;;;;;22.40;14.17;;;10.70;99.50;;;;;;4972543;28;20964;-75
2022/03/03 11:16:37;;;;;;;23.03;15.50;;;10.90;99.80;;;;;;4996298;23;20500;-79
2022/03/03 11:19:04;;;;;;;24.23;16.60;;;11.10;99.70;;;;;;4973253;28;20459;-79
2022/03/03 11:21:32;;;;;;;21.90;16.20;;;11.20;99.20;;;;;;4973420;28;20468;-79
2022/03/03 11:24:00;;;;;;;24.90;16.07;;;11.50;99.90;;;;;;4973336;28;20485;-79
2022/03/03 11:26:31;;;;;;;22.90;16.63;;;12.30;97.60;;;;;;4976159;28;20464;-79
2022/03/03 11:29:02;;;;;;;23.57;16.67;;;12.40;97.10;;;;;;4976927;28;20452;-79
2022/03/03 11:31:31;;;;;;;22.10;15.73;;;12.50;97.70;;;;;;4977161;28;20474;-79
2022/03/03 11:34:29;;;;;;;28.27;16.40;;;12.60;98.00;;;;;;4977348;28;20658;-79
2022/03/03 11:37:06;;;;;;;23.47;15.07;;;12.70;96.80;;;;;;4977061;28;20524;-79
2022/03/03 11:39:39;;;;;;;21.07;15.60;;;12.90;96.80;;;;;;4977396;28;20491;-79
2022/03/03 11:42:36;;;;;;;22.13;15.63;;;12.80;96.20;;;;;;4977229;28;20893;-79
2022/03/03 11:45:19;;;;;;;22.43;15.20;;;13.20;97.70;;;;;;4979189;28;20879;-79
2022/03/03 11:47:48;;;;;;;26.10;15.17;;;13.60;98.50;;;;;;4977972;28;20451;-80
2022/03/03 11:50:22;;;;;;;24.87;16.27;;;13.70;95.50;;;;;;4977769;28;20460;-80
2022/03/03 11:52:54;;;;;;;24.23;16.57;;;13.60;95.50;;;;;;4978433;28;20445;-80
2022/03/03 11:55:34;;;;;;;24.50;17.53;;;13.20;94.60;;;;;;4977701;28;20503;-79
2022/03/03 11:58:06;;;;;;;24.23;16.93;;;13.10;96.30;;;;;;4977740;28;20467;-79
2022/03/03 12:00:35;;;;;;;24.87;17.60;;;13.10;94.50;;;;;;4977236;28;20444;-79
2022/03/03 12:03:05;;;;;;;26.20;16.90;;;13.20;94.80;;;;;;4977551;28;20484;-80
2022/03/03 12:05:37;;;;;;;30.03;17.33;;;13.30;94.50;;;;;;4977485;28;20465;-80
2022/03/03 12:08:07;;;;;;;29.53;17.60;;;13.30;94.50;;;;;;4976615;28;20569;-80
2022/03/03 12:10:35;;;;;;;28.93;17.03;;;13.20;94.30;;;;;;4976142;28;20467;-80
2022/03/03 12:13:24;;;;;;;25.90;16.93;;;13.20;94.90;;;;;;4976778;28;20536;-80
2022/03/03 12:16:32;;;;;;;26.67;17.10;;;13.50;95.20;;;;;;4976856;28;20496;-80
2022/03/03 12:19:11;;;;;;;23.20;16.40;;;13.70;95.00;;;;;;4976825;28;20512;-80
2022/03/03 12:21:40;;;;;;;25.73;16.93;;;13.70;93.70;;;;;;4976818;28;20461;-80
2022/03/03 12:24:33;;;;;;;23.17;17.33;;;13.90;95.10;;;;;;4976985;28;20873;-80
2022/03/03 12:27:11;;;;;;;26.73;18.47;;;14.00;95.70;;;;;;4977622;28;20516;-80
2022/03/03 12:29:57;;;;;;;28.33;17.97;;;14.10;94.00;;;;;;4977314;28;20461;-80
2022/03/03 12:32:37;;;;;;;23.47;16.90;;;14.10;94.10;;;;;;4977491;28;21064;-80
2022/03/03 12:35:09;;;;;;;29.60;17.70;;;14.40;94.20;;;;;;4977132;28;20882;-80
2022/03/03 12:37:43;;;;;;;23.00;17.20;;;14.50;94.20;;;;;;4976364;28;20456;-80
2022/03/03 12:40:14;;;;;;;28.07;18.50;;;14.40;93.90;;;;;;4978130;28;20448;-80
2022/03/03 12:42:44;;;;;;;30.10;18.43;;;14.40;93.30;;;;;;4977939;28;20456;-80
2022/03/03 12:45:14;;;;;;;22.43;17.03;;;14.40;94.30;;;;;;4978480;28;20468;-80
2022/03/03 12:47:44;;;;;;;25.97;18.17;;;14.50;95.00;;;;;;4981756;28;20457;-80
2022/03/03 12:50:14;;;;;;;25.70;17.40;;;14.70;94.30;;;;;;4986008;28;20452;-80
2022/03/03 12:52:43;;;;;;;25.07;18.60;;;14.70;93.70;;;;;;4985280;28;20517;-80
2022/03/03 12:55:15;;;;;;;25.83;18.03;;;14.40;93.40;;;;;;4982678;28;21012;-80
2022/03/03 12:57:42;;;;;;;25.03;16.83;;;14.50;93.60;;;;;;4978964;28;20457;-80
2022/03/03 13:00:11;;;;;;;24.23;17.00;;;14.60;93.30;;;;;;4978659;28;20468;-80
2022/03/03 13:02:55;;;;;;;20.67;15.77;;;14.70;93.90;;;;;;4976349;28;20465;-80
2022/03/03 13:05:30;;;;;;;23.07;17.20;;;14.80;91.90;;;;;;4975746;28;20495;-80
2022/03/03 13:07:58;;;;;;;25.90;18.50;;;15.10;93.40;;;;;;4976361;28;20455;-80
2022/03/03 13:10:26;;;;;;;26.10;17.57;;;15.00;90.60;;;;;;4975591;28;20452;-80
2022/03/03 13:12:54;;;;;;;25.80;18.50;;;14.60;90.70;;;;;;4975375;28;20475;-80
2022/03/03 13:15:28;;;;;;;26.10;17.30;;;14.40;90.60;;;;;;4975378;28;20992;-80
2022/03/03 13:18:00;;;;;;;24.23;16.63;;;14.60;91.30;;;;;;4975866;28;20456;-80
2022/03/03 13:20:32;;;;;;;22.60;17.07;;;14.80;90.80;;;;;;4975588;28;20464;-80
2022/03/03 13:22:58;;;;;;;25.00;18.27;;;14.70;90.60;;;;;;4975115;28;20456;-80
2022/03/03 13:25:27;;;;;;;24.07;16.93;;;14.70;89.50;;;;;;4975469;28;20984;-80
2022/03/03 13:27:54;;;;;;;24.03;16.90;;;14.50;89.30;;;;;;4975399;28;20863;-79
2022/03/03 13:30:22;;;;;;;30.73;17.40;;;14.50;89.20;;;;;;4975293;28;20455;-80
2022/03/03 13:32:50;;;;;;;23.27;16.83;;;14.50;88.10;;;;;;4975445;28;20453;-79
2022/03/03 13:35:19;;;;;;;24.20;17.33;;;14.40;87.50;;;;;;4975480;28;20539;-80
2022/03/03 13:37:46;;;;;;;26.77;16.80;;;14.30;86.20;;;;;;4975629;28;21102;-79
2022/03/03 13:40:15;;;;;;;22.10;15.47;;;14.40;89.00;;;;;;4974972;28;20440;-80
2022/03/03 13:42:43;;;;;;;23.87;16.00;;;14.70;89.10;;;;;;4975295;28;20491;-79
2022/03/03 13:45:12;;;;;;;32.20;16.97;;;14.70;83.90;;;;;;4974787;28;20512;-80
2022/03/03 13:47:41;;;;;;;26.57;16.00;;;14.90;84.10;;;;;;4974729;28;20541;-80
2022/03/03 13:50:16;;;;;;;21.50;15.73;;;14.90;83.80;;;;;;4974612;28;20472;-79
2022/03/03 13:52:43;;;;;;;21.23;14.27;;;15.00;82.70;;;;;;4974759;28;20538;-79
2022/03/03 13:55:15;;;;;;;22.57;16.73;;;15.10;82.60;;;;;;4974651;28;20559;-79
2022/03/03 13:57:45;;;;;;;21.30;15.07;;;15.10;83.30;;;;;;4974953;28;20521;-80
2022/03/03 14:00:19;;;;;;;16.60;12.70;;;15.30;80.10;;;;;;4974725;28;20787;-79
2022/03/03 14:02:59;;;;;;;15.50;12.00;;;15.70;78.90;;;;;;4974475;28;20534;-79
2022/03/03 14:05:41;;;;;;;17.83;11.93;;;15.90;76.90;;;;;;4974859;28;20837;-79
2022/03/03 14:08:19;;;;;;;17.57;12.83;;;16.20;74.20;;;;;;4974754;28;20459;-80
2022/03/03 14:10:52;;;;;;;16.00;11.90;;;16.30;73.00;;;;;;4974398;28;20535;-79
2022/03/03 14:13:21;;;;;;;17.03;11.27;;;16.50;75.50;;;;;;4975309;28;20456;-80
2022/03/03 14:15:49;;;;;;;15.93;10.30;;;16.50;70.50;;;;;;4974860;28;20511;-79
2022/03/03 14:18:17;;;;;;;16.57;11.50;;;16.60;70.30;;;;;;4974779;28;20971;-80
2022/03/03 14:20:44;;;;;;;13.50;9.83;;;16.50;67.40;;;;;;4974599;28;20978;-80
2022/03/03 14:23:11;;;;;;;11.97;9.20;;;16.60;65.50;;;;;;4973447;28;20457;-79
2022/03/03 14:25:38;;;;;;;12.60;8.63;;;16.60;61.80;;;;;;4972937;28;20531;-79
2022/03/03 14:28:05;;;;;;;11.07;8.40;;;16.60;61.70;;;;;;4973321;28;20455;-79
2022/03/03 14:30:34;;;;;;;12.50;9.43;;;16.70;62.20;;;;;;4973096;28;21023;-79
2022/03/03 14:33:00;;;;;;;12.83;9.20;;;16.70;60.70;;;;;;4973426;28;20576;-79
2022/03/03 14:35:28;;;;;;;14.43;9.20;;;16.80;62.00;;;;;;4973213;28;20829;-79
2022/03/03 14:37:55;;;;;;;11.97;9.20;;;16.90;63.00;;;;;;4973102;28;20464;-79
2022/03/03 14:40:22;;;;;;;10.03;8.53;;;16.90;61.80;;;;;;4972865;28;20488;-79
2022/03/03 14:42:49;;;;;;;10.47;7.90;;;16.90;60.70;;;;;;4972982;28;21019;-79
2022/03/03 14:45:16;;;;;;;11.70;9.23;;;16.90;60.60;;;;;;4973299;28;20571;-79
2022/03/03 14:47:44;;;;;;;12.83;9.83;;;16.90;62.40;;;;;;4973276;28;20945;-79
2022/03/03 14:50:13;;;;;;;12.80;9.43;;;17.00;60.70;;;;;;4973097;28;20456;-79
2022/03/03 14:52:41;;;;;;;12.47;9.10;;;17.00;61.70;;;;;;4973053;28;20535;-79
2022/03/03 14:55:09;;;;;;;9.97;8.20;;;17.00;59.90;;;;;;4973788;28;20472;-79
2022/03/03 14:57:36;;;;;;;11.03;8.50;;;17.00;59.40;;;;;;4973075;28;20496;-79
2022/03/03 15:00:05;;;;;;;9.50;7.93;;;17.00;59.00;;;;;;4973900;28;20448;-79
2022/03/03 15:02:33;;;;;;;12.57;8.23;;;17.00;59.20;;;;;;4976784;28;20484;-79
2022/03/03 15:05:01;;;;;;;10.77;8.30;;;17.00;58.80;;;;;;4976655;28;20487;-79
2022/03/03 15:07:28;;;;;;;11.20;8.53;;;17.20;58.90;;;;;;4976684;28;20539;-79
2022/03/03 15:09:55;;;;;;;11.07;8.63;;;17.20;59.30;;;;;;4976544;28;20892;-79
2022/03/03 15:12:22;;;;;;;10.07;8.27;;;17.30;58.70;;;;;;4976833;28;21032;-79
2022/03/03 15:14:49;;;;;;;8.93;7.37;;;17.40;59.60;;;;;;4976599;28;20480;-79
2022/03/03 15:17:16;;;;;;;9.63;7.73;;;17.60;57.40;;;;;;4976610;28;20492;-79
2022/03/03 15:19:43;;;;;;;8.70;7.23;;;17.80;56.80;;;;;;4976211;28;20859;-79
2022/03/03 15:22:12;;;;;;;8.57;6.70;;;17.90;57.70;;;;;;4976889;28;20456;-79
2022/03/03 15:24:39;;;;;;;8.43;6.33;;;18.10;56.20;;;;;;4976542;28;20470;-79
2022/03/03 15:27:07;;;;;;;9.87;6.27;;;18.30;53.90;;;;;;4976491;28;20471;-78
2022/03/03 15:29:34;;;;;;;8.77;7.10;;;18.50;52.20;;;;;;4976309;28;20460;-78
2022/03/03 15:32:02;;;;;;;11.00;8.10;;;18.60;54.10;;;;;;4976446;28;20448;-78
2022/03/03 15:37:14;;;;;;;9.50;7.20;;;18.80;53.20;;;;;;4976354;28;21034;-79
2022/03/03 15:39:41;;;;;;;11.13;7.20;;;19.00;55.40;;;;;;4976236;28;20487;-79
2022/03/03 15:42:09;;;;;;;9.10;8.20;;;19.20;54.30;;;;;;4976442;28;20460;-79
2022/03/03 15:44:37;;;;;;;8.73;7.20;;;19.30;52.30;;;;;;4976238;28;20458;-79
2022/03/03 15:47:05;;;;;;;11.43;7.20;;;19.50;54.00;;;;;;4976308;28;20453;-79
2022/03/03 15:49:32;;;;;;;9.30;7.20;;;19.70;52.30;;;;;;4976144;28;20474;-79
2022/03/03 15:51:59;;;;;;;10.40;7.77;;;19.80;53.20;;;;;;4976052;28;21024;-78
2022/03/03 15:54:28;;;;;;;12.47;7.67;;;19.90;52.80;;;;;;4975890;28;20539;-79
2022/03/03 15:56:55;;;;;;;7.43;6.63;;;20.00;50.90;;;;;;4975834;28;20506;-79
2022/03/03 15:59:23;;;;;;;12.00;7.60;;;19.80;51.60;;;;;;4975398;28;20818;-79
2022/03/03 16:01:50;;;;;;;9.03;6.87;;;19.60;51.60;;;;;;4975917;28;20956;-79
2022/03/03 16:04:18;;;;;;;7.87;6.33;;;19.30;52.40;;;;;;4975633;28;20492;-78
2022/03/03 16:06:45;;;;;;;8.63;6.90;;;19.10;54.00;;;;;;4975909;28;20484;-78
2022/03/03 16:09:13;;;;;;;9.70;7.10;;;18.70;51.00;;;;;;4975394;28;20551;-79
2022/03/03 16:11:42;;;;;;;10.13;7.63;;;18.30;52.70;;;;;;4975565;28;20452;-79
2022/03/03 16:14:09;;;;;;;9.57;7.40;;;17.90;52.20;;;;;;4977142;28;20449;-78
2022/03/03 16:16:36;;;;;;;10.30;7.53;;;17.40;51.90;;;;;;4975929;28;20930;-78
2022/03/03 16:19:04;;;;;;;11.37;7.60;;;17.00;52.50;;;;;;4975338;28;20487;-78
2022/03/03 16:21:31;;;;;;;13.93;8.20;;;16.60;54.30;;;;;;4975505;28;20547;-79
2022/03/03 16:23:58;;;;;;;8.00;6.87;;;16.20;53.10;;;;;;4978805;28;20476;-78
2022/03/03 16:26:26;;;;;;;12.33;7.63;;;15.90;53.80;;;;;;4977608;28;20500;-78
2022/03/03 16:28:54;;;;;;;9.17;7.03;;;15.50;53.30;;;;;;4978606;28;20964;-78
2022/03/03 16:32:01;;;;;;;10.23;7.33;;;15.20;54.50;;;;;;4978586;28;20449;-78
2022/03/03 16:34:28;;;;;;;10.67;8.03;;;15.00;55.00;;;;;;4978005;28;20459;-78
2022/03/03 16:36:56;;;;;;;12.20;7.90;;;14.80;55.60;;;;;;4976204;28;20511;-78
2022/03/03 16:39:23;;;;;;;13.13;8.00;;;14.50;56.90;;;;;;4975266;28;20484;-78
2022/03/03 16:41:50;;;;;;;10.57;7.60;;;14.40;55.90;;;;;;4976330;28;20455;-78
2022/03/03 16:44:19;;;;;;;12.67;7.93;;;14.30;55.60;;;;;;4975779;28;20445;-78
2022/03/03 16:46:46;;;;;;;12.40;9.10;;;14.00;55.40;;;;;;4975115;28;20481;-78
2022/03/03 16:49:14;;;;;;;12.53;9.03;;;13.90;57.00;;;;;;4974573;28;20809;-78
2022/03/03 16:51:42;;;;;;;12.43;9.53;;;13.70;57.10;;;;;;4975729;28;20553;-78
2022/03/03 16:54:10;;;;;;;9.90;7.80;;;13.50;58.50;;;;;;4976161;28;20460;-78
2022/03/03 16:56:37;;;;;;;11.43;8.90;;;13.40;57.60;;;;;;4976139;28;20575;-79
2022/03/03 16:59:05;;;;;;;11.20;8.00;;;13.30;57.40;;;;;;4975883;28;20547;-79
2022/03/03 17:01:34;;;;;;;10.37;7.90;;;13.10;56.10;;;;;;4975407;28;20940;-79
2022/03/03 17:04:01;;;;;;;9.50;7.50;;;12.90;56.90;;;;;;4980643;28;20461;-79
2022/03/03 17:06:28;;;;;;;13.17;8.00;;;12.80;57.70;;;;;;4980024;28;20475;-78
2022/03/03 17:08:56;;;;;;;11.00;7.93;;;12.70;55.80;;;;;;4981544;28;20508;-78
2022/03/03 17:11:23;;;;;;;9.63;7.07;;;12.50;56.40;;;;;;4977744;28;20483;-77
2022/03/03 17:13:53;;;;;;;11.47;6.80;;;12.30;56.20;;;;;;4980085;28;20459;-79
2022/03/03 17:16:20;;;;;;;10.93;6.90;;;12.30;57.40;;;;;;4999163;23;20499;-74
2022/03/03 17:18:50;;;;;;;10.70;6.80;;;12.10;55.60;;;;;;4974144;28;20457;-75
2022/03/03 17:21:17;;;;;;;7.80;6.50;;;12.00;56.20;;;;;;4974182;28;20515;-73
2022/03/03 17:23:45;;;;;;;10.13;7.50;;;12.00;57.90;;;;;;4973442;28;20449;-74
2022/03/03 17:26:12;;;;;;;9.27;6.93;;;11.80;57.40;;;;;;4973918;28;20485;-74
2022/03/03 17:28:39;;;;;;;8.00;6.47;;;11.70;57.90;;;;;;4973502;28;20467;-74
2022/03/03 17:31:06;;;;;;;8.17;6.50;;;11.60;57.40;;;;;;4973631;28;20456;-73
2022/03/03 17:33:33;;;;;;;10.77;6.87;;;11.50;57.50;;;;;;4974096;28;20898;-74
2022/03/03 17:36:02;;;;;;;10.97;7.27;;;11.40;56.40;;;;;;4973909;28;20473;-74
2022/03/03 17:38:29;;;;;;;10.13;6.93;;;11.20;56.10;;;;;;4973517;28;20489;-74
2022/03/03 17:40:56;;;;;;;9.13;6.70;;;11.20;55.80;;;;;;4973553;28;20941;-74
2022/03/03 17:43:23;;;;;;;11.30;6.63;;;11.00;56.00;;;;;;4973524;28;20460;-74
2022/03/03 17:45:50;;;;;;;9.20;5.90;;;10.90;57.60;;;;;;4973734;28;20556;-75
2022/03/03 17:48:17;;;;;;;7.77;5.97;;;10.80;56.40;;;;;;4973680;28;20937;-75